Aeroporto :
LOGIN :

Iscrizione | Disclaimer

   EN    FR    IT 

 










Sommario :    VFR   VFR Marginale   IFR   IFR Intensivo   IFR Molto Intensivo
Visibilità : 
Base nubi : 
>= 8 km
>= 3000ft
5 / 8 km
1000 / 3000 ft
1500m / 5 km
500 / 1000 ft
800 / 1500m
200 / 500 ft
< 800m
< 200 ft
Simboli :   Temporali  Nebbia  Neve Forte  Precipitazioni Forti  Vento > 20 kt
SIGMETs :   Varie  Temporali  Ghiacco  Turbolenza  Onda orograficha  Ceneri Vulcaniche






- Altitudine del aeroporto : 17 ft
- Codice IATA : RHO


LGRP - Diagoras

ULTIMO METAR :
  • 310050Z 00000KT CAVOK 17/15 Q1016 NOSIG

METARs OBSOLETI :
  • 310020Z 00000KT CAVOK 17/15 Q1016 NOSIG
  • 302350Z 00000KT CAVOK 17/15 Q1016 NOSIG
  • 302320Z VRB02KT CAVOK 18/16 Q1017 NOSIG
  • 302250Z 00000KT CAVOK 18/16 Q1016 NOSIG

TAF TAF LGRP
Valido dal 31 a 00 ore il 01 a 00 ore UTC


302300Z 3100/3124 VRB05KT 9999 FEW018
BECMG 3101/3103 SCT020 BKN050
BECMG 3107/3109 22010KT
PROB30
TEMPO 3112/3115 5000 SHRA FEW018TCU BKN020 BKN050



MetMap, La meteo Aeronautica in un colpo d'occhio ! - Copyright ORBIFLY Dicembre 2007 - Disclaimer

ORBIFLY MET'MAP TEAM :

Programmazione e sviluppo : Alexandra Zaïnal
Concezione : Baudouin d'Aumeries
Aiuto per la programmazione : Marc-Olivier Méhu
Supporto tecnico e logistico : Manuel Goepfert
Aiuto per la traduzione : Arnaldo La Scala

Contatto : metmap@orbifly.com




FONTI E CREDITI :

   NOAA